createdAt,value
2019-02-28T00:00:40.677Z,5.50
2019-02-28T00:01:38.603Z,5.55
2019-02-28T00:02:38.590Z,5.67
2019-02-28T00:03:38.577Z,5.59
2019-02-28T00:04:38.566Z,5.52
2019-02-28T00:05:39.103Z,5.56
2019-02-28T00:06:38.546Z,5.48
2019-02-28T00:07:38.535Z,5.57
2019-02-28T00:08:38.529Z,5.46
2019-02-28T00:09:38.510Z,5.53
2019-02-28T00:10:38.541Z,5.40
2019-02-28T00:11:39.500Z,5.40
2019-02-28T00:12:38.477Z,5.45
2019-02-28T00:13:38.483Z,5.38
2019-02-28T00:14:38.457Z,5.43
2019-02-28T00:15:38.440Z,5.37
2019-02-28T00:16:38.445Z,5.45
2019-02-28T00:17:42.545Z,5.50
2019-02-28T00:18:39.402Z,5.43
2019-02-28T00:19:38.393Z,5.40
2019-02-28T00:20:38.387Z,5.37
2019-02-28T00:21:40.546Z,5.38
2019-02-28T00:22:38.393Z,5.27
2019-02-28T00:23:38.348Z,5.34
2019-02-28T00:24:38.334Z,5.20
2019-02-28T00:25:38.656Z,5.27
2019-02-28T00:26:38.339Z,5.20
2019-02-28T00:27:38.303Z,5.32
2019-02-28T00:28:38.293Z,5.17
2019-02-28T00:29:38.280Z,5.30
2019-02-28T00:30:40.806Z,5.20
2019-02-28T00:31:38.276Z,5.20
2019-02-28T00:32:38.248Z,5.17
2019-02-28T00:33:38.252Z,5.25
2019-02-28T00:34:39.201Z,5.30
2019-02-28T00:35:38.215Z,5.17
2019-02-28T00:36:38.225Z,5.20
2019-02-28T00:37:38.188Z,5.16
2019-02-28T00:38:38.178Z,5.12
2019-02-28T00:39:38.163Z,5.12
2019-02-28T00:40:38.683Z,5.16
2019-02-28T00:41:42.910Z,5.20
2019-02-28T00:42:39.125Z,5.13
2019-02-28T00:43:38.116Z,5.09
2019-02-28T00:44:38.108Z,5.09
2019-02-28T00:45:38.097Z,5.10
2019-02-28T00:46:38.130Z,5.17
2019-02-28T00:47:38.084Z,5.10
2019-02-28T00:48:38.066Z,5.14
2019-02-28T00:49:38.048Z,5.17
2019-02-28T00:50:38.036Z,5.13
2019-02-28T00:51:38.039Z,5.09
2019-02-28T00:52:38.049Z,5.20
2019-02-28T00:53:38.206Z,5.14
2019-02-28T00:54:43.136Z,5.14
2019-02-28T00:55:38.977Z,5.02
2019-02-28T00:56:37.974Z,5.16
2019-02-28T00:57:37.978Z,5.13
2019-02-28T00:58:37.968Z,5.05
2019-02-28T00:59:37.931Z,5.05
2019-02-28T01:00:38.174Z,5.02
2019-02-28T01:01:37.911Z,4.98
2019-02-28T01:02:37.921Z,4.99
2019-02-28T01:03:37.886Z,4.94
2019-02-28T01:04:37.893Z,5.02
2019-02-28T01:05:37.867Z,5.02
2019-02-28T01:06:37.855Z,5.02
2019-02-28T01:07:37.858Z,4.95
2019-02-28T01:08:37.831Z,4.91
2019-02-28T01:09:37.819Z,4.91
2019-02-28T01:10:39.247Z,4.92
2019-02-28T01:11:37.795Z,4.92
2019-02-28T01:12:37.802Z,4.91
2019-02-28T01:13:37.775Z,4.86
2019-02-28T01:14:37.761Z,4.94
2019-02-28T01:15:37.764Z,4.86
2019-02-28T01:16:37.737Z,4.80
2019-02-28T01:17:37.743Z,4.77
2019-02-28T01:18:37.720Z,4.77
2019-02-28T01:19:41.351Z,4.80
2019-02-28T01:20:37.690Z,4.79
2019-02-28T01:21:37.681Z,4.80
2019-02-28T01:22:37.705Z,4.80
2019-02-28T01:23:37.659Z,4.77
2019-02-28T01:24:37.647Z,4.75
2019-02-28T01:25:40.173Z,4.80
2019-02-28T01:26:37.624Z,4.73
2019-02-28T01:27:37.613Z,4.72
2019-02-28T01:28:37.619Z,4.64
2019-02-28T01:29:37.601Z,4.67
2019-02-28T01:30:40.621Z,4.72
2019-02-28T01:31:37.576Z,4.73
2019-02-28T01:32:37.553Z,4.64
2019-02-28T01:33:37.563Z,4.57
2019-02-28T01:34:37.537Z,4.70
2019-02-28T01:35:40.782Z,4.70
2019-02-28T01:36:37.529Z,4.61
2019-02-28T01:37:37.498Z,4.70
2019-02-28T01:38:37.507Z,4.62
2019-02-28T01:39:37.475Z,4.67
2019-02-28T01:40:37.754Z,4.69
2019-02-28T01:41:37.453Z,4.76
2019-02-28T01:42:37.456Z,4.70
2019-02-28T01:43:37.443Z,4.58
2019-02-28T01:44:37.414Z,4.69
2019-02-28T01:45:37.406Z,4.67
2019-02-28T01:46:37.417Z,4.58
2019-02-28T01:47:37.382Z,4.54
2019-02-28T01:48:37.418Z,4.72
2019-02-28T01:49:37.358Z,4.57
2019-02-28T01:50:37.348Z,4.70
2019-02-28T01:51:37.338Z,4.59
2019-02-28T01:52:37.328Z,4.59
2019-02-28T01:53:37.328Z,4.57
2019-02-28T01:54:37.320Z,4.43
2019-02-28T01:55:37.292Z,4.55
2019-02-28T01:56:37.908Z,4.52
2019-02-28T01:57:42.313Z,4.58
2019-02-28T01:58:38.256Z,4.65
2019-02-28T01:59:37.266Z,4.57
2019-02-28T02:00:37.233Z,4.72
2019-02-28T02:01:37.222Z,4.72
2019-02-28T02:02:38.074Z,4.62
2019-02-28T02:03:37.213Z,4.67
2019-02-28T02:04:37.207Z,4.72
2019-02-28T02:05:37.179Z,4.61
2019-02-28T02:06:37.164Z,4.55
2019-02-28T02:07:37.166Z,4.76
2019-02-28T02:08:37.789Z,4.65
2019-02-28T02:09:37.149Z,4.72
2019-02-28T02:10:37.119Z,4.80
2019-02-28T02:11:37.107Z,4.70
2019-02-28T02:12:37.095Z,4.69
2019-02-28T02:13:37.485Z,4.62
2019-02-28T02:14:37.094Z,4.67
2019-02-28T02:15:37.062Z,4.52
2019-02-28T02:16:37.066Z,4.52
2019-02-28T02:17:37.041Z,4.52
2019-02-28T02:18:37.029Z,4.54
2019-02-28T02:19:37.065Z,4.51
2019-02-28T02:20:37.038Z,4.43
2019-02-28T02:21:37.029Z,4.59
2019-02-28T02:22:36.982Z,4.43
2019-02-28T02:23:36.978Z,4.32
2019-02-28T02:24:36.988Z,4.40
2019-02-28T02:25:38.166Z,4.37
2019-02-28T02:26:36.939Z,4.44
2019-02-28T02:27:36.926Z,4.32
2019-02-28T02:28:36.915Z,4.36
2019-02-28T02:29:37.153Z,4.22
2019-02-28T02:30:36.920Z,4.37
2019-02-28T02:31:36.884Z,4.34
2019-02-28T02:32:38.753Z,4.25
2019-02-28T02:33:36.862Z,4.22
2019-02-28T02:34:36.853Z,4.28
2019-02-28T02:35:42.287Z,4.15
2019-02-28T02:36:37.823Z,4.22
2019-02-28T02:37:36.831Z,4.34
2019-02-28T02:38:41.459Z,4.12
2019-02-28T02:39:37.790Z,4.21
2019-02-28T02:40:36.779Z,4.29
2019-02-28T02:41:36.788Z,4.24
2019-02-28T02:42:36.764Z,4.24
2019-02-28T02:43:36.747Z,4.28
2019-02-28T02:44:36.738Z,4.21
2019-02-28T02:45:41.826Z,4.19
2019-02-28T02:46:37.727Z,4.29
2019-02-28T02:47:36.698Z,4.24
2019-02-28T02:48:38.564Z,4.26
2019-02-28T02:49:37.674Z,4.26
2019-02-28T02:50:36.668Z,4.25
2019-02-28T02:51:36.678Z,4.19
2019-02-28T02:52:36.641Z,4.10
2019-02-28T02:53:41.368Z,4.10
2019-02-28T02:54:37.620Z,4.18
2019-02-28T02:55:36.607Z,4.22
2019-02-28T02:56:40.661Z,4.12
2019-02-28T02:57:37.601Z,4.04
2019-02-28T02:58:36.573Z,4.07
2019-02-28T02:59:39.069Z,4.04
2019-02-28T03:00:36.572Z,4.32
2019-02-28T03:01:36.548Z,4.33
2019-02-28T03:02:36.546Z,4.32
2019-02-28T03:03:42.968Z,4.43
2019-02-28T03:04:37.501Z,4.69
2019-02-28T03:05:36.822Z,4.86
2019-02-28T03:06:36.485Z,5.02
2019-02-28T03:07:36.492Z,5.16
2019-02-28T03:08:37.416Z,5.16
2019-02-28T03:09:36.448Z,5.32
2019-02-28T03:10:36.443Z,5.32
2019-02-28T03:11:36.426Z,5.41
2019-02-28T03:12:36.431Z,5.38
2019-02-28T03:13:41.913Z,5.31
2019-02-28T03:14:37.396Z,5.35
2019-02-28T03:15:36.392Z,5.35
2019-02-28T03:16:36.368Z,5.40
2019-02-28T03:17:36.378Z,5.32
2019-02-28T03:18:36.345Z,5.25
2019-02-28T03:19:36.335Z,5.09
2019-02-28T03:20:36.327Z,5.07
2019-02-28T03:21:36.311Z,5.09
2019-02-28T03:22:36.314Z,4.95
2019-02-28T03:23:40.024Z,4.77
2019-02-28T03:24:36.275Z,4.70
2019-02-28T03:25:36.275Z,4.65
2019-02-28T03:26:41.342Z,4.50
2019-02-28T03:27:37.261Z,4.52
2019-02-28T03:28:36.233Z,4.46
2019-02-28T03:29:36.219Z,4.44
2019-02-28T03:30:36.207Z,4.37
2019-02-28T03:31:36.204Z,4.37
2019-02-28T03:32:42.097Z,4.37
2019-02-28T03:33:37.168Z,4.36
2019-02-28T03:34:36.175Z,4.29
2019-02-28T03:35:42.967Z,4.24
2019-02-28T03:36:37.134Z,4.15
2019-02-28T03:37:36.145Z,4.10
2019-02-28T03:38:36.117Z,4.15
2019-02-28T03:39:36.102Z,4.01
2019-02-28T03:40:40.186Z,4.10
2019-02-28T03:41:37.081Z,3.94
2019-02-28T03:42:36.097Z,4.12
2019-02-28T03:43:42.487Z,4.07
2019-02-28T03:44:37.041Z,3.98
2019-02-28T03:45:36.034Z,4.00
2019-02-28T03:46:36.023Z,3.97
2019-02-28T03:47:36.012Z,3.90
2019-02-28T03:48:36.331Z,3.97
2019-02-28T03:49:35.986Z,3.94
2019-02-28T03:50:35.975Z,4.14
2019-02-28T03:51:35.963Z,3.94
2019-02-28T03:52:41.706Z,4.07
2019-02-28T03:53:36.957Z,4.18
2019-02-28T03:54:35.932Z,4.16
2019-02-28T03:55:40.155Z,4.06
2019-02-28T03:56:35.906Z,4.18
2019-02-28T03:57:35.895Z,4.25
2019-02-28T03:58:41.689Z,4.21
2019-02-28T03:59:36.875Z,4.32
2019-02-28T04:00:35.863Z,4.25
2019-02-28T04:01:35.849Z,4.39
2019-02-28T04:02:35.840Z,4.34
2019-02-28T04:03:35.849Z,4.19
2019-02-28T04:04:35.815Z,4.34
2019-02-28T04:05:35.805Z,4.22
2019-02-28T04:06:39.551Z,4.43
2019-02-28T04:07:35.785Z,4.34
2019-02-28T04:08:35.769Z,4.37
2019-02-28T04:09:35.775Z,4.36
2019-02-28T04:10:35.750Z,4.32
2019-02-28T04:11:35.737Z,4.32
2019-02-28T04:12:35.725Z,4.39
2019-02-28T04:13:35.717Z,4.42
2019-02-28T04:14:35.722Z,4.50
2019-02-28T04:15:35.695Z,4.57
2019-02-28T04:16:35.683Z,4.58
2019-02-28T04:17:35.668Z,4.67
2019-02-28T04:18:35.658Z,4.67
2019-02-28T04:19:35.662Z,4.76
2019-02-28T04:20:37.417Z,4.79
2019-02-28T04:21:35.621Z,5.04
2019-02-28T04:22:35.612Z,5.02
2019-02-28T04:23:36.920Z,5.16
2019-02-28T04:24:35.612Z,5.30
2019-02-28T04:25:35.575Z,5.40
2019-02-28T04:26:35.563Z,5.60
2019-02-28T04:27:40.520Z,5.53
2019-02-28T04:28:36.539Z,5.50
2019-02-28T04:29:35.554Z,5.77
2019-02-28T04:30:42.174Z,5.88
2019-02-28T04:31:36.505Z,5.82
2019-02-28T04:32:35.495Z,5.82
2019-02-28T04:33:39.084Z,5.75
2019-02-28T04:34:35.487Z,5.81
2019-02-28T04:35:35.485Z,5.73
2019-02-28T04:36:36.527Z,5.73
2019-02-28T04:37:35.440Z,5.73
2019-02-28T04:38:35.426Z,5.89
2019-02-28T04:39:35.413Z,5.95
2019-02-28T04:40:35.419Z,5.89
2019-02-28T04:41:35.391Z,6.04
2019-02-28T04:42:36.635Z,5.96
2019-02-28T04:43:35.366Z,6.03
2019-02-28T04:44:35.355Z,5.81
2019-02-28T04:45:35.367Z,5.91
2019-02-28T04:46:35.333Z,5.75
2019-02-28T04:47:37.297Z,5.68
2019-02-28T04:48:36.307Z,5.83
2019-02-28T04:49:35.299Z,5.70
2019-02-28T04:50:35.304Z,5.78
2019-02-28T04:51:37.107Z,5.82
2019-02-28T04:52:35.264Z,5.81
2019-02-28T04:53:35.253Z,5.88
2019-02-28T04:54:35.241Z,5.83
2019-02-28T04:55:37.326Z,5.81
2019-02-28T04:56:35.217Z,5.83
2019-02-28T04:57:35.203Z,5.83
2019-02-28T04:58:35.193Z,5.91
2019-02-28T04:59:35.181Z,5.81
2019-02-28T05:00:37.797Z,5.83
2019-02-28T05:01:35.160Z,5.89
2019-02-28T05:02:35.149Z,5.95
2019-02-28T05:03:35.134Z,5.88
2019-02-28T05:04:36.085Z,5.78
2019-02-28T05:05:35.130Z,5.75
2019-02-28T05:06:35.100Z,5.70
2019-02-28T05:07:35.089Z,5.70
2019-02-28T05:08:38.651Z,5.68
2019-02-28T05:09:35.067Z,5.63
2019-02-28T05:10:35.096Z,5.52
2019-02-28T05:11:35.043Z,5.55
2019-02-28T05:12:36.175Z,5.49
2019-02-28T05:13:35.020Z,5.49
2019-02-28T05:14:35.007Z,5.40
2019-02-28T05:15:38.521Z,5.41
2019-02-28T05:16:36.004Z,5.32
2019-02-28T05:17:34.975Z,5.25
2019-02-28T05:18:34.963Z,5.22
2019-02-28T05:19:35.735Z,5.20
2019-02-28T05:20:34.940Z,5.16
2019-02-28T05:21:34.946Z,5.25
2019-02-28T05:22:34.916Z,5.04
2019-02-28T05:23:35.998Z,5.23
2019-02-28T05:24:34.893Z,5.20
2019-02-28T05:25:34.882Z,5.25
2019-02-28T05:26:34.893Z,5.27
2019-02-28T05:27:35.604Z,5.25
2019-02-28T05:28:40.281Z,5.37
2019-02-28T05:29:35.835Z,5.48
2019-02-28T05:30:34.825Z,5.38
2019-02-28T05:31:34.811Z,5.48
2019-02-28T05:32:35.575Z,5.46
2019-02-28T05:33:34.792Z,5.55
2019-02-28T05:34:34.780Z,5.55
2019-02-28T05:35:34.767Z,5.56
2019-02-28T05:36:37.920Z,5.60
2019-02-28T05:37:34.766Z,5.63
2019-02-28T05:38:34.734Z,5.67
2019-02-28T05:39:34.723Z,5.83
2019-02-28T05:40:40.548Z,5.83
2019-02-28T05:41:36.333Z,5.83
2019-02-28T05:42:34.705Z,5.96
2019-02-28T05:43:34.679Z,6.03
2019-02-28T05:44:37.443Z,6.22
2019-02-28T05:45:35.648Z,6.16
2019-02-28T05:46:34.642Z,6.28
2019-02-28T05:47:45.787Z,6.21
2019-02-28T05:48:38.779Z,6.21
2019-02-28T05:49:34.608Z,6.06
2019-02-28T05:50:34.596Z,6.10
2019-02-28T05:51:34.580Z,6.09
2019-02-28T05:52:34.622Z,6.01
2019-02-28T05:53:34.580Z,5.92
2019-02-28T05:54:34.548Z,5.92
2019-02-28T05:55:34.535Z,5.85
2019-02-28T05:56:34.529Z,5.98
2019-02-28T05:57:34.514Z,5.95
2019-02-28T05:58:34.519Z,6.04
2019-02-28T05:59:34.490Z,5.98
2019-02-28T06:00:37.029Z,5.78
2019-02-28T06:01:34.467Z,5.95
2019-02-28T06:02:34.460Z,5.88
2019-02-28T06:03:34.462Z,5.78
2019-02-28T06:04:37.145Z,5.75
2019-02-28T06:05:34.421Z,5.67
2019-02-28T06:06:34.409Z,5.85
2019-02-28T06:07:34.398Z,5.68
2019-02-28T06:08:35.501Z,5.64
2019-02-28T06:09:34.377Z,5.70
2019-02-28T06:10:34.378Z,5.73
2019-02-28T06:11:35.503Z,5.57
2019-02-28T06:12:34.341Z,5.60
2019-02-28T06:13:34.393Z,5.52
2019-02-28T06:14:34.328Z,5.63
2019-02-28T06:15:37.111Z,5.57
2019-02-28T06:16:34.294Z,5.52
2019-02-28T06:17:34.306Z,5.49
2019-02-28T06:18:34.278Z,5.63
2019-02-28T06:19:34.258Z,5.55
2019-02-28T06:20:34.248Z,5.46
2019-02-28T06:21:34.235Z,5.60
2019-02-28T06:22:36.252Z,5.49
2019-02-28T06:23:34.214Z,5.49
2019-02-28T06:24:34.203Z,5.60
2019-02-28T06:25:34.190Z,5.48
2019-02-28T06:26:34.185Z,5.63
2019-02-28T06:27:41.070Z,5.52
2019-02-28T06:28:35.189Z,5.49
2019-02-28T06:29:36.724Z,5.52
2019-02-28T06:30:34.131Z,5.45
2019-02-28T06:31:34.533Z,5.49
2019-02-28T06:32:34.110Z,5.41
2019-02-28T06:33:34.447Z,5.38
2019-02-28T06:34:34.087Z,5.43
2019-02-28T06:35:34.074Z,5.52
2019-02-28T06:36:34.080Z,5.46
2019-02-28T06:37:35.367Z,5.50
2019-02-28T06:38:34.058Z,5.71
2019-02-28T06:39:34.029Z,5.70
2019-02-28T06:40:34.022Z,5.75
2019-02-28T06:41:34.008Z,5.81
2019-02-28T06:42:33.996Z,6.04
2019-02-28T06:43:34.003Z,5.95
2019-02-28T06:44:33.973Z,6.00
2019-02-28T06:45:36.686Z,6.01
2019-02-28T06:46:33.948Z,6.18
2019-02-28T06:47:33.937Z,6.22
2019-02-28T06:48:33.942Z,6.35
2019-02-28T06:49:33.915Z,6.30
2019-02-28T06:50:33.901Z,6.25
2019-02-28T06:51:33.901Z,6.35
2019-02-28T06:52:33.879Z,6.36
2019-02-28T06:53:36.191Z,6.46
2019-02-28T06:54:33.860Z,6.59
2019-02-28T06:55:33.846Z,6.61
2019-02-28T06:56:33.833Z,6.65
2019-02-28T06:57:33.822Z,6.81
2019-02-28T06:58:34.016Z,6.87
2019-02-28T06:59:36.141Z,6.90
2019-02-28T07:00:34.787Z,6.99
2019-02-28T07:01:33.775Z,7.09
2019-02-28T07:02:33.763Z,7.02
2019-02-28T07:03:35.131Z,7.13
2019-02-28T07:04:33.739Z,7.13
2019-02-28T07:05:40.769Z,7.09
2019-02-28T07:06:35.927Z,7.02
2019-02-28T07:07:33.709Z,7.22
2019-02-28T07:08:33.716Z,7.26
2019-02-28T07:09:36.390Z,7.24
2019-02-28T07:10:33.669Z,7.26
2019-02-28T07:11:33.665Z,7.23
2019-02-28T07:12:33.654Z,7.32
2019-02-28T07:13:38.779Z,7.38
2019-02-28T07:14:34.624Z,7.31
2019-02-28T07:15:33.611Z,7.34
2019-02-28T07:16:34.077Z,7.35
2019-02-28T07:17:33.590Z,7.45
2019-02-28T07:18:33.605Z,7.49
2019-02-28T07:19:33.568Z,7.45
2019-02-28T07:20:35.117Z,7.53
2019-02-28T07:21:34.597Z,7.59
2019-02-28T07:22:33.534Z,7.63
2019-02-28T07:23:33.523Z,7.77
2019-02-28T07:24:37.298Z,8.03
2019-02-28T07:25:33.500Z,8.14
2019-02-28T07:26:33.490Z,8.44
2019-02-28T07:27:33.477Z,8.73
2019-02-28T07:28:37.403Z,8.93
2019-02-28T07:29:33.476Z,9.05
2019-02-28T07:30:33.443Z,9.23
2019-02-28T07:31:33.434Z,9.32
2019-02-28T07:32:34.288Z,9.21
2019-02-28T07:33:33.412Z,9.24
2019-02-28T07:34:33.424Z,9.34
2019-02-28T07:35:36.692Z,9.46
2019-02-28T07:36:33.375Z,9.43
2019-02-28T07:37:33.364Z,9.45
2019-02-28T07:38:33.350Z,9.45
2019-02-28T07:39:33.338Z,9.31
2019-02-28T07:40:33.399Z,9.30
2019-02-28T07:41:33.318Z,9.28
2019-02-28T07:42:33.667Z,9.24
2019-02-28T07:43:33.292Z,9.15
2019-02-28T07:44:33.282Z,9.25
2019-02-28T07:45:34.186Z,9.39
2019-02-28T07:46:33.255Z,9.68
2019-02-28T07:47:33.247Z,10.34
2019-02-28T07:48:33.231Z,10.76
2019-02-28T07:49:36.745Z,11.11
2019-02-28T07:50:33.235Z,11.46
2019-02-28T07:51:33.199Z,11.89
2019-02-28T07:52:33.783Z,12.09
2019-02-28T07:53:33.174Z,12.08
2019-02-28T07:54:33.161Z,12.29
2019-02-28T07:55:33.150Z,12.29
2019-02-28T07:56:33.158Z,12.39
2019-02-28T07:57:33.133Z,12.69
2019-02-28T07:58:33.616Z,12.96
2019-02-28T07:59:33.105Z,13.12
2019-02-28T08:00:33.100Z,13.20
2019-02-28T08:01:33.099Z,13.29
2019-02-28T08:02:35.635Z,13.36
2019-02-28T08:03:34.057Z,13.41
2019-02-28T08:04:33.046Z,13.63
2019-02-28T08:05:33.041Z,13.89
2019-02-28T08:06:33.041Z,13.49
2019-02-28T08:07:33.010Z,13.71
2019-02-28T08:08:33.001Z,13.99
2019-02-28T08:09:32.989Z,14.13
2019-02-28T08:10:32.979Z,13.98
2019-02-28T08:11:32.987Z,14.12
2019-02-28T08:12:32.955Z,14.12
2019-02-28T08:13:34.680Z,14.38
2019-02-28T08:14:32.929Z,14.52
2019-02-28T08:15:32.923Z,14.64
2019-02-28T08:16:34.078Z,15.06
2019-02-28T08:17:35.317Z,15.49
2019-02-28T08:18:32.886Z,15.48
2019-02-28T08:19:32.913Z,15.49
2019-02-28T08:20:33.848Z,15.75
2019-02-28T08:21:32.852Z,15.97
2019-02-28T08:22:32.858Z,15.94
2019-02-28T08:23:32.828Z,15.86
2019-02-28T08:24:35.799Z,15.78
2019-02-28T08:25:32.812Z,15.68
2019-02-28T08:26:32.794Z,16.09
2019-02-28T08:27:32.810Z,16.38
2019-02-28T08:28:36.797Z,16.18
2019-02-28T08:29:32.763Z,15.85
2019-02-28T08:30:32.746Z,15.86
2019-02-28T08:31:33.050Z,15.81
2019-02-28T08:32:33.912Z,15.94
2019-02-28T08:33:32.710Z,16.15
2019-02-28T08:34:32.700Z,16.30
2019-02-28T08:35:34.705Z,16.58
2019-02-28T08:36:32.722Z,16.11
2019-02-28T08:37:32.702Z,16.31
2019-02-28T08:38:34.224Z,16.34
2019-02-28T08:39:32.646Z,16.73
2019-02-28T08:40:32.630Z,16.95
2019-02-28T08:41:32.620Z,17.15
2019-02-28T08:42:38.653Z,16.99
2019-02-28T08:43:33.614Z,16.98
2019-02-28T08:44:32.584Z,17.10
2019-02-28T08:45:33.379Z,16.48
2019-02-28T08:46:32.563Z,15.86
2019-02-28T08:47:32.550Z,16.25
2019-02-28T08:48:34.804Z,16.62
2019-02-28T08:49:32.527Z,16.75
2019-02-28T08:50:32.520Z,16.40
2019-02-28T08:51:32.506Z,16.03
2019-02-28T08:52:32.494Z,16.23
2019-02-28T08:53:32.503Z,16.85
2019-02-28T08:54:32.473Z,17.13
2019-02-28T08:55:32.461Z,17.63
2019-02-28T08:56:32.452Z,18.13
2019-02-28T08:57:32.437Z,18.68
2019-02-28T08:58:32.443Z,19.02
2019-02-28T08:59:32.417Z,18.86
2019-02-28T09:00:33.312Z,18.54
2019-02-28T09:01:32.394Z,18.67
2019-02-28T09:02:32.386Z,18.25
2019-02-28T09:03:32.393Z,18.28
2019-02-28T09:04:40.729Z,18.50
2019-02-28T09:05:33.350Z,18.72
2019-02-28T09:06:32.336Z,19.17
2019-02-28T09:07:32.323Z,19.24
2019-02-28T09:08:32.335Z,19.50
2019-02-28T09:09:34.423Z,19.50
2019-02-28T09:10:32.292Z,19.40
2019-02-28T09:11:32.277Z,19.90
2019-02-28T09:12:33.364Z,19.94
2019-02-28T09:13:32.254Z,19.98
2019-02-28T09:14:32.261Z,19.93
2019-02-28T09:15:32.232Z,19.40
2019-02-28T09:16:32.219Z,19.43
2019-02-28T09:17:32.211Z,19.14
2019-02-28T09:18:32.198Z,19.60
2019-02-28T09:19:32.584Z,20.08
2019-02-28T09:20:32.176Z,19.95
2019-02-28T09:21:32.162Z,19.88
2019-02-28T09:22:32.153Z,19.55
2019-02-28T09:23:34.517Z,19.33
2019-02-28T09:24:33.145Z,19.51
2019-02-28T09:25:32.119Z,19.29
2019-02-28T09:26:32.105Z,18.90
2019-02-28T09:27:32.093Z,18.44
2019-02-28T09:28:32.083Z,18.10
2019-02-28T09:29:32.112Z,17.67
2019-02-28T09:30:32.059Z,17.55
2019-02-28T09:31:32.054Z,17.47
2019-02-28T09:32:32.040Z,17.88
2019-02-28T09:33:32.029Z,18.70
2019-02-28T09:34:32.018Z,19.36
2019-02-28T09:35:32.021Z,19.32
2019-02-28T09:36:31.989Z,20.33
2019-02-28T09:37:31.976Z,21.08
2019-02-28T09:38:31.966Z,21.34
2019-02-28T09:39:31.955Z,21.01
2019-02-28T09:40:31.962Z,21.27
2019-02-28T09:41:31.930Z,21.32
2019-02-28T09:42:31.921Z,21.13
2019-02-28T09:43:31.910Z,20.76
2019-02-28T09:44:32.504Z,20.10
2019-02-28T09:45:31.912Z,19.80
2019-02-28T09:46:31.876Z,20.28
2019-02-28T09:47:31.862Z,20.03
2019-02-28T09:48:34.054Z,20.00
2019-02-28T09:49:32.839Z,20.09
2019-02-28T09:50:33.248Z,20.18
2019-02-28T09:51:32.763Z,20.28
2019-02-28T09:52:31.809Z,19.78
2019-02-28T09:53:31.797Z,19.17
2019-02-28T09:54:31.786Z,19.47
2019-02-28T09:55:35.345Z,19.79
2019-02-28T09:56:31.782Z,19.93
2019-02-28T09:57:31.750Z,19.98
2019-02-28T09:58:31.739Z,21.01
2019-02-28T09:59:37.485Z,21.72
2019-02-28T10:00:32.715Z,21.50
2019-02-28T10:01:31.726Z,21.97
2019-02-28T10:02:31.695Z,22.17
2019-02-28T10:03:31.688Z,21.81
2019-02-28T10:04:31.673Z,22.02
2019-02-28T10:05:31.665Z,22.31
2019-02-28T10:06:33.186Z,21.60
2019-02-28T10:07:31.641Z,21.48
2019-02-28T10:08:33.530Z,21.79
2019-02-28T10:09:31.615Z,21.66
2019-02-28T10:10:31.606Z,22.19
2019-02-28T10:11:32.512Z,22.64
2019-02-28T10:12:31.583Z,23.19
2019-02-28T10:13:31.575Z,22.86
2019-02-28T10:14:31.562Z,22.71
2019-02-28T10:15:31.551Z,22.57
2019-02-28T10:16:31.558Z,21.53
2019-02-28T10:17:31.531Z,21.27
2019-02-28T10:18:31.519Z,20.98
2019-02-28T10:19:31.512Z,20.51
2019-02-28T10:20:31.494Z,19.60
2019-02-28T10:21:33.286Z,19.23
2019-02-28T10:22:31.473Z,19.50
2019-02-28T10:23:31.461Z,19.78
2019-02-28T10:24:32.282Z,19.97
2019-02-28T10:25:31.438Z,20.41
2019-02-28T10:26:31.426Z,20.38
2019-02-28T10:27:31.439Z,20.53
2019-02-28T10:28:31.402Z,20.54
2019-02-28T10:29:31.392Z,20.90
2019-02-28T10:30:32.570Z,21.20
2019-02-28T10:31:35.378Z,21.79
2019-02-28T10:32:32.373Z,22.41
2019-02-28T10:33:31.352Z,22.68
2019-02-28T10:34:31.335Z,22.56
2019-02-28T10:35:33.400Z,22.75
2019-02-28T10:36:32.311Z,23.05
2019-02-28T10:37:31.318Z,23.23
2019-02-28T10:38:32.925Z,23.07
2019-02-28T10:39:31.278Z,23.05
2019-02-28T10:40:31.271Z,23.31
2019-02-28T10:41:31.350Z,23.70
2019-02-28T10:42:31.262Z,23.42
2019-02-28T10:43:31.233Z,23.19
2019-02-28T10:44:31.604Z,23.42
2019-02-28T10:45:31.212Z,23.58
2019-02-28T10:46:31.197Z,23.62
2019-02-28T10:47:31.205Z,23.87
2019-02-28T10:48:31.176Z,23.46
2019-02-28T10:49:31.170Z,23.24
2019-02-28T10:50:33.188Z,23.05
2019-02-28T10:51:31.144Z,23.45
2019-02-28T10:52:31.157Z,24.04
2019-02-28T10:53:31.122Z,23.95
2019-02-28T10:54:31.109Z,23.15
2019-02-28T10:55:31.096Z,22.75
2019-02-28T10:56:32.056Z,22.44
2019-02-28T10:57:31.076Z,22.50
2019-02-28T10:58:31.082Z,22.72
2019-02-28T10:59:31.054Z,22.68
2019-02-28T11:00:32.784Z,23.08
2019-02-28T11:01:31.029Z,23.15
2019-02-28T11:02:31.020Z,23.11
2019-02-28T11:03:32.238Z,23.53
2019-02-28T11:04:30.999Z,23.45
2019-02-28T11:05:30.987Z,23.65
2019-02-28T11:06:30.973Z,23.72
2019-02-28T11:07:30.965Z,24.14
2019-02-28T11:08:30.953Z,24.56
2019-02-28T11:09:30.959Z,24.13
2019-02-28T11:10:35.164Z,23.62
2019-02-28T11:11:30.920Z,23.08
2019-02-28T11:12:30.909Z,22.62
2019-02-28T11:13:31.970Z,22.22
2019-02-28T11:14:30.904Z,22.01
2019-02-28T11:15:30.873Z,22.32
2019-02-28T11:16:30.862Z,21.90
2019-02-28T11:17:34.104Z,21.59
2019-02-28T11:18:30.840Z,22.07
2019-02-28T11:19:30.846Z,22.37
2019-02-28T11:20:30.819Z,22.59
2019-02-28T11:21:30.807Z,22.35
2019-02-28T11:22:30.795Z,21.64
2019-02-28T11:23:30.781Z,21.24
2019-02-28T11:24:30.791Z,20.72
2019-02-28T11:25:34.634Z,20.21
2019-02-28T11:26:30.749Z,19.87
2019-02-28T11:27:30.738Z,19.51
2019-02-28T11:28:30.726Z,18.74
2019-02-28T11:29:30.735Z,18.33
2019-02-28T11:30:30.703Z,18.02
2019-02-28T11:31:30.692Z,17.88
2019-02-28T11:32:30.683Z,17.84
2019-02-28T11:33:30.669Z,17.46
2019-02-28T11:34:30.676Z,17.15
2019-02-28T11:35:30.644Z,17.13
2019-02-28T11:36:33.988Z,16.42
2019-02-28T11:37:30.623Z,16.27
2019-02-28T11:38:30.618Z,16.25
2019-02-28T11:39:33.660Z,16.26
2019-02-28T11:40:30.589Z,16.27
2019-02-28T11:41:30.576Z,16.37
2019-02-28T11:42:31.245Z,16.62
2019-02-28T11:43:30.556Z,16.68
2019-02-28T11:44:30.569Z,16.75
2019-02-28T11:45:30.532Z,16.80
2019-02-28T11:46:35.622Z,16.92
2019-02-28T11:47:31.507Z,16.93
2019-02-28T11:48:30.496Z,16.75
2019-02-28T11:49:30.503Z,16.81
2019-02-28T11:50:30.473Z,16.52
2019-02-28T11:51:30.462Z,16.48
2019-02-28T11:52:30.451Z,16.62
2019-02-28T11:53:30.440Z,16.74
2019-02-28T11:54:30.455Z,16.88
2019-02-28T11:55:30.421Z,16.98
2019-02-28T11:56:30.407Z,17.10
2019-02-28T11:57:30.396Z,17.03
2019-02-28T11:58:30.536Z,16.89
2019-02-28T11:59:30.371Z,16.83
2019-02-28T12:00:32.597Z,17.28
2019-02-28T12:01:31.345Z,17.73
2019-02-28T12:02:31.760Z,18.06
2019-02-28T12:03:31.914Z,18.37
2019-02-28T12:04:30.317Z,18.80
2019-02-28T12:05:30.319Z,19.53
2019-02-28T12:06:30.291Z,19.60
2019-02-28T12:07:34.572Z,20.03
2019-02-28T12:08:30.268Z,20.46
2019-02-28T12:09:30.256Z,20.18
2019-02-28T12:10:30.262Z,20.39
2019-02-28T12:11:30.237Z,20.87
2019-02-28T12:12:30.221Z,20.96
2019-02-28T12:13:30.209Z,21.24
2019-02-28T12:14:30.225Z,21.48
2019-02-28T12:15:30.209Z,21.69
2019-02-28T12:16:30.177Z,21.76
2019-02-28T12:17:30.167Z,22.04
2019-02-28T12:18:30.153Z,22.50
2019-02-28T12:19:30.142Z,22.69
2019-02-28T12:20:30.134Z,22.87
2019-02-28T12:21:30.135Z,23.09
2019-02-28T12:22:30.106Z,23.42
2019-02-28T12:23:30.096Z,23.26
2019-02-28T12:24:32.393Z,22.99
2019-02-28T12:25:30.076Z,22.93
2019-02-28T12:26:30.080Z,22.71
2019-02-28T12:27:30.057Z,22.84
2019-02-28T12:28:30.044Z,23.01
2019-02-28T12:29:30.030Z,23.27
2019-02-28T12:30:30.018Z,23.19
2019-02-28T12:31:32.037Z,22.96
2019-02-28T12:32:30.993Z,22.50
2019-02-28T12:33:29.984Z,22.43
2019-02-28T12:34:30.072Z,21.95
2019-02-28T12:35:29.962Z,22.17
2019-02-28T12:36:29.968Z,22.56
2019-02-28T12:37:29.939Z,22.39
2019-02-28T12:38:29.931Z,22.46
2019-02-28T12:39:29.917Z,22.31
2019-02-28T12:40:29.905Z,22.64
2019-02-28T12:41:29.934Z,23.04
2019-02-28T12:42:31.635Z,23.09
2019-02-28T12:43:29.874Z,23.24
2019-02-28T12:44:29.863Z,22.68
2019-02-28T12:45:29.850Z,23.29
2019-02-28T12:46:31.849Z,23.70
2019-02-28T12:47:29.846Z,23.87
2019-02-28T12:48:29.830Z,24.04
2019-02-28T12:49:29.804Z,24.23
2019-02-28T12:50:30.364Z,24.16
2019-02-28T12:51:29.784Z,24.19
2019-02-28T12:52:29.789Z,24.24
2019-02-28T12:53:29.769Z,23.87
2019-02-28T12:54:30.301Z,23.60
2019-02-28T12:55:29.740Z,22.90
2019-02-28T12:56:29.727Z,22.44
2019-02-28T12:57:29.732Z,22.57
2019-02-28T12:58:38.832Z,22.29
2019-02-28T12:59:30.695Z,22.64
2019-02-28T13:00:29.683Z,22.64
2019-02-28T13:01:33.079Z,22.56
2019-02-28T13:02:29.751Z,22.69
2019-02-28T13:03:29.686Z,22.68
2019-02-28T13:04:32.602Z,22.44
2019-02-28T13:05:30.626Z,22.38
2019-02-28T13:06:36.649Z,22.41
2019-02-28T13:07:30.490Z,21.60